CW2323 Weather Reports


Display with metric or nautical units.
time (UTC)temp
F
wind
direction
speed
MPH
gust
MPH
rain 1hr
in
rain 24hr
in
rain mn
in
humidity
%
barometer
mb
20210122030242 34 157 1.0 2.0 0.00 0.00 0.00 49 1004.5
20210122025232 34 157 1.0 2.0 0.00 0.00 0.00 49 1004.3
20210122024244 34 157 2.0 3.0 0.00 0.00 0.00 48 1004.5
20210122023229 34 157 1.0 4.0 0.00 0.00 0.00 48 1004.5
20210122022235 35 157 2.0 4.0 0.00 0.00 0.00 47 1004.5
20210122021244 36 159 3.0 4.0 0.00 0.00 0.00 45 1004.5
20210122020241 37 91 1.0 5.0 0.00 0.00 0.00 43 1004.5
20210122015247 37 140 2.0 5.0 0.00 0.00 0.00 42 1004.7
20210122014244 38 95 2.0 3.0 0.00 0.00 0.00 41 1004.8
20210122013235 38 129 0.0 3.0 0.00 0.00 0.00 41 1004.8
20210122012244 39 126 1.0 3.0 0.00 0.00 0.00 40 1004.9
20210122011240 39 137 3.0 4.0 0.00 0.00 0.00 41 1005.0
20210122010230 39 132 2.0 3.0 0.00 0.00 0.00 41 1005.0
20210122005244 39 97 0.0 2.0 0.00 0.00 0.00 40 1004.6
20210122004235 39 97 1.0 5.0 0.00 0.00 0.00 39 1004.5
20210122003244 40 98 2.0 7.0 0.00 0.00 0.00 39 1004.5
20210122002234 40 95 3.0 5.0 0.00 0.00 0.00 38 1004.5
20210122001235 41 71 1.0 5.0 0.00 0.00 0.00 38 1004.4
20210122000239 41 108 4.0 8.0 0.00 0.00 0.00 37 1004.4
20210121235234 42 127 3.0 9.0 0.00 0.00 0.00 36 1004.3
20210121234243 42 89 2.0 9.0 0.00 0.00 0.00 35 1004.0
20210121233229 42 74 6.0 11.0 0.00 0.00 0.00 35 1004.0
20210121232237 43 96 6.0 13.0 0.00 0.00 0.00 34 1003.9
20210121231241 44 74 7.0 11.0 0.00 0.00 0.00 33 1003.9
20210121230235 44 67 5.0 11.0 0.00 0.00 0.00 32 1003.9
20210121225228 45 97 4.0 10.0 0.00 0.00 0.00 31 1003.9
20210121224231 46 82 6.0 10.0 0.00 0.00 0.00 29 1003.8
20210121223245 46 87 5.0 11.0 0.00 0.00 0.00 28 1003.8
20210121222232 47 84 4.0 11.0 0.00 0.00 0.00 28 1003.8
20210121221230 47 16 2.0 7.0 0.00 0.00 0.00 27 1003.9
20210121220231 47 30 5.0 8.0 0.00 0.00 0.00 26 1003.9
20210121215238 48 33 6.0 10.0 0.00 0.00 0.00 26 1003.7
20210121214241 49 26 5.0 11.0 0.00 0.00 0.00 26 1003.8
20210121213245 48 355 6.0 13.0 0.00 0.00 0.00 26 1003.8
20210121212234 48 5 4.0 8.0 0.00 0.00 0.00 26 1003.6
20210121211241 49 11 5.0 11.0 0.00 0.00 0.00 25 1003.6
20210121210243 48 5 5.0 11.0 0.00 0.00 0.00 25 1003.6
20210121205230 48 5 7.0 10.0 0.00 0.00 0.00 25 1003.5
20210121204234 48 5 8.0 13.0 0.00 0.00 0.00 25 1003.4
20210121203246 48 50 6.0 11.0 0.00 0.00 0.00 24 1003.4
20210121202236 48 22 5.0 13.0 0.00 0.00 0.00 24 1003.6
20210121201232 49 19 6.0 12.0 0.00 0.00 0.00 23 1003.8
20210121200237 49 355 6.0 13.0 0.00 0.00 0.00 24 1003.8
20210121195235 49 41 6.0 12.0 0.00 0.00 0.00 23 1003.9
20210121194245 49 24 5.0 11.0 0.00 0.00 0.00 24 1004.0
20210121193230 49 23 5.0 11.0 0.00 0.00 0.00 24 1004.0
20210121192239 49 36 6.0 11.0 0.00 0.00 0.00 24 1004.4
20210121191245 49 24 6.0 12.0 0.00 0.00 0.00 24 1004.5
20210121190227 49 53 6.0 10.0 0.00 0.00 0.00 23 1004.5
20210121185238 50 5 6.0 10.0 0.00 0.00 0.00 22 1004.8
20210121184231 49 49 5.0 11.0 0.00 0.00 0.00 23 1005.1
20210121183229 49 94 5.0 12.0 0.00 0.00 0.00 23 1005.1
20210121182233 49 83 4.0 11.0 0.00 0.00 0.00 23 1005.3
20210121181231 49 76 4.0 10.0 0.00 0.00 0.00 23 1005.8
20210121180239 49 28 5.0 11.0 0.00 0.00 0.00 23 1005.8
20210121175247 48 54 6.0 11.0 0.00 0.00 0.00 24 1005.9
20210121174242 48 52 7.0 11.0 0.00 0.00 0.00 24 1005.9
20210121173238 48 33 7.0 9.0 0.00 0.00 0.00 24 1005.9
20210121172239 48 278 1.0 5.0 0.00 0.00 0.00 22 1006.1
20210121171245 48 5 2.0 4.0 0.00 0.00 0.00 23 1006.3
20210121170231 47 236 3.0 8.0 0.00 0.00 0.00 24 1006.3
20210121165232 46 245 5.0 8.0 0.00 0.00 0.00 25 1006.1
20210121164239 45 245 5.0 9.0 0.00 0.00 0.00 27 1005.9
20210121163247 45 214 6.0 9.0 0.00 0.00 0.00 27 1005.9
20210121162235 43 207 4.0 7.0 0.00 0.00 0.00 27 1005.8
20210121161236 43 200 4.0 7.0 0.00 0.00 0.00 28 1005.7
20210121160242 42 185 6.0 9.0 0.00 0.00 0.00 28 1005.7
20210121155247 43 190 6.0 12.0 0.00 0.00 0.00 28 1005.4
20210121154230 42 189 8.0 11.0 0.00 0.00 0.00 29 1005.2
20210121153242 41 174 8.0 11.0 0.00 0.00 0.00 31 1005.2
20210121152246 41 178 9.0 13.0 0.00 0.00 0.00 31 1005.1
20210121151224 40 209 9.0 11.0 0.00 0.00 0.00 32 1004.9
20210121150237 40 227 9.0 13.0 0.00 0.00 0.00 32 1004.9
20210121145234 39 229 6.0 9.0 0.00 0.00 0.00 33 1004.7
20210121144242 38 193 7.0 10.0 0.00 0.00 0.00 35 1004.9
20210121143247 37 194 5.0 7.0 0.00 0.00 0.00 38 1004.9
20210121142229 36 209 4.0 8.0 0.00 0.00 0.00 36 1004.9
20210121141241 35 193 5.0 8.0 0.00 0.00 0.00 39 1005.0
20210121140232 33 192 5.0 7.0 0.00 0.00 0.00 43 1005.0
20210121135247 34 173 3.0 5.0 0.00 0.00 0.00 40 1005.1
20210121134246 32 175 4.0 6.0 0.00 0.00 0.00 43 1004.9
20210121133235 34 180 4.0 5.0 0.00 0.00 0.00 42 1004.9
20210121132246 35 178 6.0 7.0 0.00 0.00 0.00 38 1004.6
20210121131230 36 194 4.0 5.0 0.00 0.00 0.00 37 1004.5
20210121130237 36 210 3.0 5.0 0.00 0.00 0.00 36 1004.5
20210121125245 37 192 5.0 10.0 0.00 0.00 0.00 36 1004.3
20210121124235 37 179 6.0 10.0 0.00 0.00 0.00 35 1004.3
20210121123246 37 199 8.0 10.0 0.00 0.00 0.00 35 1004.3
20210121122239 36 188 6.0 9.0 0.00 0.00 0.00 36 1004.2
20210121121259 37 184 6.0 9.0 0.00 0.00 0.00 35 1003.9
20210121120240 38 197 4.0 7.0 0.00 0.00 0.00 33 1003.9
20210121115230 37 196 6.0 8.0 0.00 0.00 0.00 35 1003.9
20210121114240 36 188 5.0 8.0 0.00 0.00 0.00 36 1003.9
20210121113245 36 184 6.0 8.0 0.00 0.00 0.00 37 1003.9
20210121112238 36 188 5.0 7.0 0.00 0.00 0.00 36 1003.9
20210121111245 36 194 6.0 7.0 0.00 0.00 0.00 37 1004.0
20210121110237 36 194 6.0 8.0 0.00 0.00 0.00 38 1004.0
20210121105231 36 191 6.0 9.0 0.00 0.00 0.00 36 1004.3
20210121104238 37 183 7.0 8.0 0.00 0.00 0.00 36 1004.5
20210121103246 37 194 6.0 8.0 0.00 0.00 0.00 35 1004.5
20210121102236 36 195 7.0 9.0 0.00 0.00 0.00 36 1004.5
20210121101235 34 182 6.0 7.0 0.00 0.00 0.00 42 1004.7
20210121100236 35 180 4.0 6.0 0.00 0.00 0.00 40 1004.7
20210121095231 34 176 4.0 7.0 0.00 0.00 0.00 40 1004.9
20210121094243 34 182 5.0 7.0 0.00 0.00 0.00 41 1005.2
20210121093239 38 183 3.0 6.0 0.00 0.00 0.00 35 1005.2
20210121092249 39 184 4.0 6.0 0.00 0.00 0.00 33 1005.2
20210121091233 39 194 4.0 11.0 0.00 0.00 0.00 33 1005.2
20210121090249 37 185 7.0 9.0 0.00 0.00 0.00 36 1005.2
20210121085231 37 182 8.0 9.0 0.00 0.00 0.00 37 1005.3
20210121084237 37 182 7.0 9.0 0.00 0.00 0.00 38 1005.3
20210121083241 37 188 8.0 10.0 0.00 0.00 0.00 38 1005.3
20210121082250 37 179 6.0 8.0 0.00 0.00 0.00 37 1005.3
20210121081246 37 186 7.0 9.0 0.00 0.00 0.00 36 1005.7
20210121080239 37 183 8.0 9.0 0.00 0.00 0.00 37 1005.7
20210121075247 36 187 7.0 9.0 0.00 0.00 0.00 38 1005.8
20210121074249 35 181 6.0 8.0 0.00 0.00 0.00 40 1005.8
20210121073233 35 199 5.0 8.0 0.00 0.00 0.00 39 1005.8
20210121072238 37 191 6.0 7.0 0.00 0.00 0.00 36 1005.9
20210121071242 36 200 5.0 7.0 0.00 0.00 0.00 36 1005.9
20210121070233 35 213 5.0 8.0 0.00 0.00 0.00 39 1005.9
20210121065235 35 190 8.0 10.0 0.00 0.00 0.00 39 1006.1
20210121064246 35 186 7.0 9.0 0.00 0.00 0.00 38 1006.2
20210121063233 36 131 0.0 3.0 0.00 0.00 0.00 35 1006.2
20210121062244 37 131 2.0 4.0 0.00 0.00 0.00 34 1006.0
20210121061250 37 187 3.0 7.0 0.00 0.00 0.00 34 1006.0
20210121060237 37 193 3.0 5.0 0.00 0.00 0.00 35 1006.0
20210121055241 37 180 6.0 8.0 0.00 0.00 0.00 35 1005.9
20210121054233 34 176 5.0 10.0 0.00 0.00 0.00 41 1005.9
20210121053248 34 165 6.0 7.0 0.00 0.00 0.00 39 1005.9
20210121052232 35 170 6.0 8.0 0.00 0.00 0.00 39 1006.2
20210121051238 34 170 5.0 8.0 0.00 0.00 0.00 39 1006.2
20210121050245 35 165 5.0 7.0 0.00 0.00 0.00 38 1006.2
20210121045233 35 162 4.0 6.0 0.00 0.00 0.00 39 1006.1
20210121044246 35 167 4.0 6.0 0.00 0.00 0.00 39 1006.2
20210121043240 35 167 3.0 6.0 0.00 0.00 0.00 39 1006.2
20210121042242 36 167 4.0 7.0 0.00 0.00 0.00 35 1006.2
20210121041230 34 166 4.0 6.0 0.00 0.00 0.00 39 1006.3
20210121040245 34 171 4.0 7.0 0.00 0.00 0.00 39 1006.3
20210121035239 34 175 5.0 7.0 0.00 0.00 0.00 39 1006.3
20210121034240 34 174 5.0 6.0 0.00 0.00 0.00 39 1006.3
20210121033234 34 171 4.0 5.0 0.00 0.00 0.00 38 1006.3
20210121032249 34 86 2.0 5.0 0.00 0.00 0.00 37 1006.4
20210121031246 35 64 1.0 7.0 0.00 0.00 0.00 36 1006.4